createdAt,value
2019-04-03T00:00:34.599Z,35.93
2019-04-03T00:03:04.716Z,37.97
2019-04-03T00:05:35.015Z,31.23
2019-04-03T00:08:06.000Z,34.60
2019-04-03T00:10:33.235Z,39.37
2019-04-03T00:13:01.684Z,34.83
2019-04-03T00:15:30.314Z,34.53
2019-04-03T00:17:58.832Z,32.33
2019-04-03T00:20:27.152Z,33.13
2019-04-03T00:22:55.641Z,31.57
2019-04-03T00:25:24.232Z,35.27
2019-04-03T00:27:52.986Z,32.73
2019-04-03T00:30:22.503Z,34.23
2019-04-03T00:32:53.152Z,35.53
2019-04-03T00:35:23.207Z,30.37
2019-04-03T00:37:52.939Z,32.77
2019-04-03T00:40:21.137Z,31.30
2019-04-03T00:42:49.607Z,33.43
2019-04-03T00:45:18.103Z,35.57
2019-04-03T00:47:46.664Z,34.73
2019-04-03T00:50:15.074Z,32.13
2019-04-03T00:52:43.540Z,33.67
2019-04-03T00:55:11.862Z,35.90
2019-04-03T00:57:40.031Z,38.13
2019-04-03T01:00:11.722Z,34.93
2019-04-03T01:02:40.032Z,36.07
2019-04-03T01:05:08.493Z,34.67
2019-04-03T01:07:36.960Z,34.70
2019-04-03T01:10:05.633Z,38.13
2019-04-03T01:12:33.946Z,34.43
2019-04-03T01:15:02.722Z,38.83
2019-04-03T01:17:30.924Z,43.77
2019-04-03T01:19:59.413Z,33.27
2019-04-03T01:22:27.948Z,38.87
2019-04-03T01:24:56.355Z,33.10
2019-04-03T01:27:24.856Z,37.17
2019-04-03T01:29:53.057Z,36.40
2019-04-03T01:32:21.311Z,35.67
2019-04-03T01:34:49.793Z,38.00
2019-04-03T01:37:19.290Z,31.13
2019-04-03T01:39:49.037Z,34.23
2019-04-03T01:42:17.789Z,35.97
2019-04-03T01:44:46.274Z,40.10
2019-04-03T01:47:14.484Z,40.13
2019-04-03T01:49:42.755Z,35.27
2019-04-03T01:52:11.180Z,44.37
2019-04-03T01:54:39.664Z,38.83
2019-04-03T01:57:08.166Z,38.33
2019-04-03T01:59:37.571Z,37.73
2019-04-03T02:02:08.191Z,37.87
2019-04-03T02:04:36.219Z,37.53
2019-04-03T02:07:04.631Z,36.00
2019-04-03T02:09:33.271Z,37.63
2019-04-03T02:12:01.599Z,36.27
2019-04-03T02:14:29.872Z,41.77
2019-04-03T02:16:58.047Z,38.60
2019-04-03T02:19:26.648Z,39.47
2019-04-03T02:21:55.025Z,33.73
2019-04-03T02:24:23.497Z,37.47
2019-04-03T02:26:51.968Z,39.07
2019-04-03T02:29:20.463Z,40.17
2019-04-03T02:31:51.718Z,40.47
2019-04-03T02:34:19.000Z,38.70
2019-04-03T02:36:47.431Z,41.03
2019-04-03T02:39:16.131Z,38.93
2019-04-03T02:41:44.395Z,37.57
2019-04-03T02:44:12.878Z,41.63
2019-04-03T02:46:41.368Z,35.63
2019-04-03T02:49:10.964Z,40.53
2019-04-03T02:51:39.835Z,39.40
2019-04-03T02:54:11.306Z,39.43
2019-04-03T02:56:39.911Z,40.27
2019-04-03T02:59:08.110Z,36.23
2019-04-03T03:01:39.577Z,37.93
2019-04-03T03:04:07.629Z,39.13
2019-04-03T03:06:35.863Z,38.53
2019-04-03T03:09:05.329Z,43.13
2019-04-03T03:11:33.473Z,38.23
2019-04-03T03:14:01.833Z,42.60
2019-04-03T03:16:30.040Z,44.50
2019-04-03T03:19:00.867Z,46.70
2019-04-03T03:21:28.516Z,40.50
2019-04-03T03:23:57.328Z,41.43
2019-04-03T03:26:26.831Z,40.70
2019-04-03T03:28:55.265Z,42.53
2019-04-03T03:31:56.387Z,43.10
2019-04-03T03:34:00.548Z,46.20
2019-04-03T03:36:26.173Z,45.53
2019-04-03T03:38:54.175Z,41.90
2019-04-03T03:41:24.394Z,38.83
2019-04-03T03:43:53.229Z,43.33
2019-04-03T03:46:26.402Z,43.70
2019-04-03T03:48:51.990Z,47.20
2019-04-03T03:51:20.457Z,46.47
2019-04-03T03:53:48.945Z,43.80
2019-04-03T03:56:18.405Z,47.57
2019-04-03T03:58:48.834Z,50.03
2019-04-03T04:01:18.142Z,43.50
2019-04-03T04:03:46.879Z,45.23
2019-04-03T04:06:15.298Z,46.73
2019-04-03T04:08:45.214Z,45.60
2019-04-03T04:11:13.925Z,45.17
2019-04-03T04:13:42.824Z,45.97
2019-04-03T04:16:11.290Z,42.93
2019-04-03T04:18:40.436Z,46.97
2019-04-03T04:21:10.626Z,46.33
2019-04-03T04:23:38.849Z,45.43
2019-04-03T04:26:07.244Z,49.30
2019-04-03T04:28:39.526Z,48.23
2019-04-03T04:31:06.366Z,54.83
2019-04-03T04:33:34.742Z,45.70
2019-04-03T04:36:03.211Z,49.67
2019-04-03T04:38:31.924Z,49.20
2019-04-03T04:41:01.853Z,52.17
2019-04-03T04:43:30.219Z,48.13
2019-04-03T04:45:58.763Z,44.93
2019-04-03T04:48:27.187Z,54.03
2019-04-03T04:50:55.639Z,48.07
2019-04-03T04:53:24.300Z,48.50
2019-04-03T04:55:52.602Z,49.80
2019-04-03T04:58:20.895Z,48.47
2019-04-03T05:00:51.673Z,48.77
2019-04-03T05:03:19.756Z,48.23
2019-04-03T05:05:49.228Z,43.27
2019-04-03T05:08:17.426Z,57.70
2019-04-03T05:10:48.642Z,49.00
2019-04-03T05:13:16.365Z,50.23
2019-04-03T05:15:44.832Z,51.67
2019-04-03T05:18:13.168Z,49.10
2019-04-03T05:20:41.326Z,49.43
2019-04-03T05:23:09.539Z,47.97
2019-04-03T05:25:37.753Z,50.27
2019-04-03T05:28:05.947Z,52.17
2019-04-03T05:30:36.819Z,52.03
2019-04-03T05:33:04.165Z,51.90
2019-04-03T05:35:32.374Z,49.37
2019-04-03T05:38:00.575Z,55.87
2019-04-03T05:40:28.951Z,48.40
2019-04-03T05:42:59.258Z,46.20
2019-04-03T05:45:27.233Z,48.47
2019-04-03T05:47:55.434Z,50.07
2019-04-03T05:50:25.720Z,52.83
2019-04-03T05:52:53.777Z,50.07
2019-04-03T05:55:21.978Z,49.90
2019-04-03T05:57:50.167Z,54.47
2019-04-03T06:00:18.422Z,49.43
2019-04-03T06:02:46.568Z,49.50
2019-04-03T06:05:14.888Z,48.87
2019-04-03T06:07:43.120Z,54.77
2019-04-03T06:10:11.595Z,49.97
2019-04-03T06:12:39.726Z,49.47
2019-04-03T06:15:09.796Z,53.10
2019-04-03T06:17:37.938Z,50.87
2019-04-03T06:20:06.499Z,55.50
2019-04-03T06:22:34.710Z,49.63
2019-04-03T06:25:03.379Z,52.37
2019-04-03T06:27:31.583Z,48.30
2019-04-03T06:29:59.785Z,53.57
2019-04-03T06:32:29.462Z,51.73
2019-04-03T06:34:57.993Z,53.53
2019-04-03T06:37:26.210Z,48.10
2019-04-03T06:39:54.416Z,52.37
2019-04-03T06:42:22.629Z,49.47
2019-04-03T06:44:52.791Z,50.23
2019-04-03T06:47:20.779Z,49.83
2019-04-03T06:49:48.980Z,52.53
2019-04-03T06:52:17.199Z,55.70
2019-04-03T06:54:45.412Z,50.77
2019-04-03T06:57:14.246Z,48.87
2019-04-03T06:59:42.859Z,52.87
2019-04-03T07:02:11.014Z,46.97
2019-04-03T07:04:39.222Z,53.93
2019-04-03T07:07:08.102Z,49.83
2019-04-03T07:09:37.239Z,48.73
2019-04-03T07:12:05.484Z,52.27
2019-04-03T07:14:33.707Z,52.10
2019-04-03T07:17:05.108Z,51.90
2019-04-03T07:19:32.177Z,48.07
2019-04-03T07:22:00.338Z,49.13
2019-04-03T07:24:30.063Z,50.37
2019-04-03T07:26:58.467Z,47.87
2019-04-03T07:29:26.688Z,47.80
2019-04-03T07:31:55.693Z,49.67
2019-04-03T07:34:24.173Z,51.07
2019-04-03T07:36:52.387Z,49.77
2019-04-03T07:39:20.605Z,49.70
2019-04-03T07:41:48.818Z,47.73
2019-04-03T07:44:17.046Z,46.17
2019-04-03T07:46:45.247Z,51.60
2019-04-03T07:49:14.273Z,52.70
2019-04-03T07:51:43.882Z,47.60
2019-04-03T07:54:12.703Z,46.70
2019-04-03T07:56:40.941Z,48.40
2019-04-03T07:59:09.148Z,46.93
2019-04-03T08:01:40.302Z,47.70
2019-04-03T08:04:07.295Z,53.13
2019-04-03T08:06:36.334Z,47.97
2019-04-03T08:09:09.311Z,45.27
2019-04-03T08:11:37.563Z,43.43
2019-04-03T08:14:06.754Z,38.77
2019-04-03T08:16:35.955Z,40.63
2019-04-03T08:19:04.174Z,44.93
2019-04-03T08:21:32.389Z,45.20
2019-04-03T08:24:00.846Z,53.90
2019-04-03T08:26:29.058Z,47.17
2019-04-03T08:28:57.332Z,51.23
2019-04-03T08:31:25.488Z,46.90
2019-04-03T08:33:53.712Z,49.30
2019-04-03T08:36:25.381Z,43.53
2019-04-03T08:38:52.005Z,39.63
2019-04-03T08:41:20.168Z,49.87
2019-04-03T08:43:49.948Z,47.97
2019-04-03T08:46:18.264Z,48.77
2019-04-03T08:48:46.443Z,45.37
2019-04-03T08:51:14.651Z,45.53
2019-04-03T08:53:42.872Z,46.60
2019-04-03T08:56:12.796Z,44.00
2019-04-03T08:58:41.024Z,38.20
2019-04-03T09:01:10.743Z,41.77
2019-04-03T09:03:39.329Z,41.63
2019-04-03T09:06:07.540Z,43.73
2019-04-03T09:08:35.764Z,45.67
2019-04-03T09:11:05.459Z,43.53
2019-04-03T09:13:33.676Z,43.33
2019-04-03T09:16:01.886Z,45.90
2019-04-03T09:18:30.949Z,46.57
2019-04-03T09:20:59.195Z,39.67
2019-04-03T09:23:27.413Z,39.47
2019-04-03T09:25:55.632Z,38.47
2019-04-03T09:28:23.859Z,37.63
2019-04-03T09:30:53.991Z,42.57
2019-04-03T09:33:24.653Z,44.03
2019-04-03T09:35:52.130Z,40.43
2019-04-03T09:38:20.607Z,38.87
2019-04-03T09:40:48.843Z,39.37
2019-04-03T09:43:17.115Z,40.83
2019-04-03T09:45:45.330Z,38.43
2019-04-03T09:48:14.202Z,41.40
2019-04-03T09:50:45.631Z,40.67
2019-04-03T09:53:12.613Z,43.93
2019-04-03T09:55:40.726Z,39.37
2019-04-03T09:58:09.341Z,42.57
2019-04-03T10:00:37.574Z,45.17
2019-04-03T10:03:06.064Z,38.93
2019-04-03T10:05:34.246Z,39.00
2019-04-03T10:08:02.592Z,35.37
2019-04-03T10:10:30.764Z,41.10
2019-04-03T10:12:58.988Z,36.27
2019-04-03T10:15:27.304Z,40.23
2019-04-03T10:17:55.558Z,37.77
2019-04-03T10:20:23.716Z,43.13
2019-04-03T10:22:51.922Z,40.37
2019-04-03T10:25:20.554Z,39.90
2019-04-03T10:27:48.922Z,42.13
2019-04-03T10:30:20.349Z,46.57
2019-04-03T10:32:48.946Z,44.70
2019-04-03T10:35:17.126Z,45.87
2019-04-03T10:37:46.634Z,45.87
2019-04-03T10:40:15.801Z,44.50
2019-04-03T10:42:44.013Z,49.43
2019-04-03T10:45:12.510Z,47.67
2019-04-03T10:47:43.594Z,48.20
2019-04-03T10:50:11.529Z,45.40
2019-04-03T10:52:39.738Z,45.00
2019-04-03T10:55:08.057Z,43.37
2019-04-03T10:57:37.611Z,46.83
2019-04-03T11:00:09.101Z,47.10
2019-04-03T11:02:37.668Z,53.67
2019-04-03T11:05:08.793Z,46.97
2019-04-03T11:07:37.008Z,48.73
2019-04-03T11:10:06.970Z,46.77
2019-04-03T11:12:35.525Z,46.93
2019-04-03T11:15:10.469Z,46.37
2019-04-03T11:17:37.577Z,47.47
2019-04-03T11:20:10.331Z,49.97
2019-04-03T11:22:41.544Z,43.13
2019-04-03T11:25:09.114Z,35.97
2019-04-03T11:27:43.689Z,34.20
2019-04-03T11:30:14.050Z,34.40
2019-04-03T11:32:42.156Z,32.77
2019-04-03T11:35:10.605Z,31.87
2019-04-03T11:37:38.804Z,36.23
2019-04-03T11:40:10.595Z,32.43
2019-04-03T11:42:39.007Z,30.87
2019-04-03T11:45:07.952Z,28.97
2019-04-03T11:47:36.177Z,31.60
2019-04-03T11:50:06.815Z,30.63
2019-04-03T11:52:35.242Z,32.90
2019-04-03T11:55:04.797Z,30.60
2019-04-03T11:57:33.070Z,32.50
2019-04-03T12:00:01.251Z,39.03
2019-04-03T12:02:29.766Z,35.37
2019-04-03T12:04:58.108Z,31.87
2019-04-03T12:07:26.339Z,32.50
2019-04-03T12:09:55.050Z,31.50
2019-04-03T12:12:23.844Z,32.67
2019-04-03T12:14:52.224Z,30.83
2019-04-03T12:17:20.654Z,32.43
2019-04-03T12:19:49.145Z,37.37
2019-04-03T12:22:17.856Z,37.27
2019-04-03T12:24:46.108Z,37.73
2019-04-03T12:27:14.836Z,38.27
2019-04-03T12:29:43.591Z,36.23
2019-04-03T12:32:12.065Z,35.43
2019-04-03T12:34:40.548Z,32.03
2019-04-03T12:37:09.360Z,41.03
2019-04-03T12:39:37.517Z,36.33
2019-04-03T12:42:08.307Z,36.17
2019-04-03T12:44:36.000Z,37.60
2019-04-03T12:47:05.632Z,33.87
2019-04-03T12:49:34.698Z,36.67
2019-04-03T12:52:04.127Z,37.63
2019-04-03T12:54:33.331Z,38.87
2019-04-03T12:57:02.243Z,38.27
2019-04-03T12:59:30.474Z,35.30
2019-04-03T13:01:59.330Z,39.23
2019-04-03T13:04:30.219Z,37.27
2019-04-03T13:06:57.722Z,39.27
2019-04-03T13:09:26.452Z,38.10
2019-04-03T13:11:55.100Z,42.47
2019-04-03T13:14:26.453Z,40.17
2019-04-03T13:16:53.639Z,38.20
2019-04-03T13:19:24.475Z,38.57
2019-04-03T13:21:52.431Z,34.27
2019-04-03T13:24:21.334Z,39.53
2019-04-03T13:26:50.321Z,34.63
2019-04-03T13:29:20.847Z,38.13
2019-04-03T13:31:48.914Z,36.57
2019-04-03T13:34:17.565Z,37.53
2019-04-03T13:36:45.823Z,39.27
2019-04-03T13:39:14.347Z,34.00
2019-04-03T13:41:43.354Z,35.73
2019-04-03T13:44:12.333Z,38.47
2019-04-03T13:46:40.916Z,37.30
2019-04-03T13:49:09.438Z,37.23
2019-04-03T13:51:37.919Z,42.13
2019-04-03T13:54:07.561Z,44.60
2019-04-03T13:56:36.206Z,37.57
2019-04-03T13:59:04.719Z,37.93
2019-04-03T14:01:32.911Z,38.20
2019-04-03T14:04:01.569Z,42.67
2019-04-03T14:06:29.857Z,40.60
2019-04-03T14:08:58.147Z,43.50
2019-04-03T14:11:26.685Z,41.07
2019-04-03T14:13:56.417Z,36.90
2019-04-03T14:16:24.621Z,40.00
2019-04-03T14:18:53.262Z,40.77
2019-04-03T14:21:21.432Z,44.83
2019-04-03T14:23:49.763Z,45.07
2019-04-03T14:26:18.285Z,41.97
2019-04-03T14:28:46.458Z,42.30
2019-04-03T14:31:16.689Z,43.20
2019-04-03T14:33:46.934Z,48.70
2019-04-03T14:36:18.370Z,37.90
2019-04-03T14:38:45.721Z,43.20
2019-04-03T14:41:13.985Z,56.10
2019-04-03T14:43:42.195Z,45.03
2019-04-03T14:46:10.690Z,43.97
2019-04-03T14:48:38.908Z,39.77
2019-04-03T14:51:09.417Z,41.57
2019-04-03T14:53:37.062Z,42.30
2019-04-03T14:56:05.271Z,47.30
2019-04-03T14:58:33.813Z,42.47
2019-04-03T15:01:02.227Z,47.57
2019-04-03T15:03:30.457Z,50.07
2019-04-03T15:05:58.663Z,41.60
2019-04-03T15:08:27.352Z,45.87
2019-04-03T15:10:55.711Z,44.10
2019-04-03T15:13:23.861Z,41.70
2019-04-03T15:15:52.068Z,44.00
2019-04-03T15:18:20.290Z,41.90
2019-04-03T15:20:49.375Z,41.53
2019-04-03T15:23:18.803Z,41.53
2019-04-03T15:25:48.378Z,41.40
2019-04-03T15:28:17.479Z,41.80
2019-04-03T15:30:45.802Z,45.70
2019-04-03T15:33:14.232Z,43.17
2019-04-03T15:35:42.725Z,42.87
2019-04-03T15:38:13.451Z,41.83
2019-04-03T15:40:41.216Z,40.30
2019-04-03T15:43:11.950Z,36.30
2019-04-03T15:45:39.992Z,39.93
2019-04-03T15:48:08.218Z,46.83
2019-04-03T15:50:38.443Z,40.57
2019-04-03T15:53:06.814Z,44.17
2019-04-03T15:55:37.941Z,42.87
2019-04-03T15:58:05.003Z,39.43
2019-04-03T16:00:34.875Z,38.33
2019-04-03T16:03:03.154Z,49.07
2019-04-03T16:05:33.858Z,45.23
2019-04-03T16:08:01.300Z,37.10
2019-04-03T16:10:29.661Z,39.10
2019-04-03T16:12:57.823Z,44.13
2019-04-03T16:15:26.027Z,44.60
2019-04-03T16:17:54.423Z,46.70
2019-04-03T16:20:23.300Z,43.50
2019-04-03T16:22:51.518Z,41.33
2019-04-03T16:25:20.081Z,45.20
2019-04-03T16:27:48.795Z,43.30
2019-04-03T16:30:18.655Z,40.30
2019-04-03T16:32:46.937Z,46.00
2019-04-03T16:35:15.288Z,39.83
2019-04-03T16:37:44.108Z,39.50
2019-04-03T16:40:12.615Z,54.13
2019-04-03T16:42:40.804Z,58.03
2019-04-03T16:45:09.887Z,47.33
2019-04-03T16:47:38.095Z,49.10
2019-04-03T16:50:08.608Z,53.23
2019-04-03T16:52:37.819Z,48.53
2019-04-03T16:55:07.226Z,45.47
2019-04-03T16:57:35.701Z,46.93
2019-04-03T17:00:07.587Z,47.60
2019-04-03T17:02:35.169Z,44.47
2019-04-03T17:05:03.644Z,47.50
2019-04-03T17:07:31.872Z,46.60
2019-04-03T17:10:00.073Z,46.57
2019-04-03T17:12:28.943Z,47.40
2019-04-03T17:14:57.229Z,47.60
2019-04-03T17:17:25.798Z,43.47
2019-04-03T17:19:54.040Z,50.37
2019-04-03T17:22:22.256Z,54.77
2019-04-03T17:24:55.731Z,52.57
2019-04-03T17:27:22.076Z,49.73
2019-04-03T17:29:50.501Z,46.90
2019-04-03T17:32:18.651Z,53.37
2019-04-03T17:34:46.867Z,52.70
2019-04-03T17:37:15.234Z,49.83
2019-04-03T17:39:43.476Z,54.43
2019-04-03T17:42:11.688Z,54.03
2019-04-03T17:44:39.914Z,47.03
2019-04-03T17:47:08.122Z,51.57
2019-04-03T17:49:36.398Z,59.60
2019-04-03T17:52:05.018Z,49.90
2019-04-03T17:54:34.056Z,51.03
2019-04-03T17:57:02.277Z,56.23
2019-04-03T17:59:30.486Z,53.10
2019-04-03T18:01:58.704Z,59.07
2019-04-03T18:04:27.369Z,67.20
2019-04-03T18:06:57.306Z,59.73
2019-04-03T18:09:25.515Z,65.90
2019-04-03T18:11:53.736Z,65.23
2019-04-03T18:14:21.939Z,62.73
2019-04-03T18:16:50.137Z,53.17
2019-04-03T18:19:18.519Z,54.37
2019-04-03T18:21:46.881Z,54.63
2019-04-03T18:24:16.656Z,59.17
2019-04-03T18:26:45.116Z,66.10
2019-04-03T18:29:13.253Z,55.30
2019-04-03T18:31:44.301Z,55.23
2019-04-03T18:34:11.381Z,53.43
2019-04-03T18:36:39.590Z,57.97
2019-04-03T18:39:09.729Z,52.83
2019-04-03T18:41:38.427Z,57.70
2019-04-03T18:44:06.635Z,56.93
2019-04-03T18:46:36.853Z,57.33
2019-04-03T18:49:04.781Z,61.90
2019-04-03T18:51:32.994Z,57.53
2019-04-03T18:54:01.210Z,57.77
2019-04-03T18:56:31.944Z,61.70
2019-04-03T18:58:59.344Z,53.80
2019-04-03T19:01:28.012Z,62.30
2019-04-03T19:03:56.240Z,62.23
2019-04-03T19:06:24.441Z,54.63
2019-04-03T19:08:52.667Z,59.77
2019-04-03T19:11:20.878Z,52.97
2019-04-03T19:13:50.713Z,58.13
2019-04-03T19:16:28.994Z,59.70
2019-04-03T19:18:49.245Z,57.97
2019-04-03T19:21:24.285Z,65.43
2019-04-03T19:23:49.839Z,57.30
2019-04-03T19:26:17.325Z,60.13
2019-04-03T19:28:45.534Z,53.97
2019-04-03T19:31:13.745Z,58.23
2019-04-03T19:33:44.736Z,60.53
2019-04-03T19:36:11.842Z,67.00
2019-04-03T19:38:41.317Z,60.90
2019-04-03T19:41:11.576Z,67.27
2019-04-03T19:43:39.423Z,60.60
2019-04-03T19:46:07.622Z,68.10
2019-04-03T19:48:35.819Z,61.67
2019-04-03T19:51:04.032Z,70.13
2019-04-03T19:53:32.229Z,58.33
2019-04-03T19:56:00.445Z,64.33
2019-04-03T19:58:29.611Z,61.93
2019-04-03T20:00:57.905Z,56.53
2019-04-03T20:03:26.345Z,60.50
2019-04-03T20:05:55.216Z,62.17
2019-04-03T20:08:23.516Z,60.13
2019-04-03T20:10:51.712Z,60.67
2019-04-03T20:13:19.914Z,58.57
2019-04-03T20:15:48.110Z,65.27
2019-04-03T20:18:16.315Z,65.27
2019-04-03T20:20:44.532Z,68.23
2019-04-03T20:23:12.730Z,65.50
2019-04-03T20:25:41.783Z,68.00
2019-04-03T20:28:10.233Z,56.20
2019-04-03T20:30:38.568Z,64.57
2019-04-03T20:33:06.773Z,64.93
2019-04-03T20:35:34.996Z,59.03
2019-04-03T20:38:03.196Z,64.37
2019-04-03T20:40:32.085Z,57.80
2019-04-03T20:43:01.430Z,58.17
2019-04-03T20:45:29.645Z,59.93
2019-04-03T20:47:57.994Z,60.07
2019-04-03T20:50:26.153Z,65.20
2019-04-03T20:52:56.988Z,57.77
2019-04-03T20:55:25.455Z,66.20
2019-04-03T20:57:55.725Z,60.53
2019-04-03T21:00:23.645Z,62.97
2019-04-03T21:02:51.938Z,59.83
2019-04-03T21:05:20.423Z,59.70
2019-04-03T21:07:48.916Z,58.93
2019-04-03T21:10:17.385Z,52.97
2019-04-03T21:12:45.864Z,52.90
2019-04-03T21:15:14.542Z,54.50
2019-04-03T21:17:42.826Z,53.40
2019-04-03T21:20:11.396Z,51.03
2019-04-03T21:22:39.795Z,52.07
2019-04-03T21:25:08.303Z,52.30
2019-04-03T21:27:39.652Z,47.83
2019-04-03T21:30:10.034Z,53.53
2019-04-03T21:32:38.332Z,51.10
2019-04-03T21:35:06.878Z,56.03
2019-04-03T21:37:35.305Z,56.40
2019-04-03T21:40:05.015Z,54.93
2019-04-03T21:42:33.869Z,58.73
2019-04-03T21:45:02.985Z,63.70
2019-04-03T21:47:32.312Z,55.97
2019-04-03T21:50:03.499Z,58.10
2019-04-03T21:52:30.778Z,70.80
2019-04-03T21:54:59.276Z,71.80
2019-04-03T21:57:27.744Z,75.77
2019-04-03T21:59:56.246Z,71.57
2019-04-03T22:02:24.705Z,70.07
2019-04-03T22:04:53.855Z,64.20
2019-04-03T22:07:22.674Z,74.33
2019-04-03T22:09:51.179Z,66.37
2019-04-03T22:12:19.390Z,63.53
2019-04-03T22:14:47.627Z,66.03
2019-04-03T22:17:16.121Z,63.13
2019-04-03T22:19:45.321Z,65.73
2019-04-03T22:22:13.697Z,61.63
2019-04-03T22:24:42.062Z,63.50
2019-04-03T22:27:11.737Z,71.40
2019-04-03T22:29:40.576Z,75.83
2019-04-03T22:32:09.046Z,63.77
2019-04-03T22:34:37.542Z,74.90
2019-04-03T22:37:05.747Z,64.67
2019-04-03T22:39:33.989Z,64.70
2019-04-03T22:42:02.455Z,62.40
2019-04-03T22:44:30.679Z,64.77
2019-04-03T22:46:58.908Z,82.00
2019-04-03T22:49:27.424Z,77.37
2019-04-03T22:51:55.880Z,76.67
2019-04-03T22:54:24.770Z,82.60
2019-04-03T22:56:53.350Z,85.40
2019-04-03T22:59:23.767Z,76.20
2019-04-03T23:01:51.855Z,84.30
2019-04-03T23:04:20.326Z,92.73
2019-04-03T23:06:49.706Z,87.53
2019-04-03T23:09:18.322Z,85.77
2019-04-03T23:11:46.813Z,87.50
2019-04-03T23:14:15.279Z,88.07
2019-04-03T23:16:45.602Z,89.80
2019-04-03T23:19:13.803Z,87.93
2019-04-03T23:21:42.015Z,93.77
2019-04-03T23:24:10.222Z,83.70
2019-04-03T23:26:38.721Z,93.53
2019-04-03T23:29:07.189Z,93.17
2019-04-03T23:31:35.680Z,90.13
2019-04-03T23:34:04.163Z,90.77
2019-04-03T23:36:32.574Z,86.13
2019-04-03T23:39:01.123Z,93.23
2019-04-03T23:41:29.617Z,97.10
2019-04-03T23:43:58.075Z,93.33
2019-04-03T23:46:26.291Z,93.87
2019-04-03T23:48:54.551Z,96.30
2019-04-03T23:51:23.866Z,93.40
2019-04-03T23:53:53.024Z,92.40
2019-04-03T23:56:21.530Z,101.20
2019-04-03T23:58:49.988Z,102.70
